createdAt,value
2023-08-17T04:35:40.197Z,18.42
2023-08-17T04:40:43.551Z,18.49
2023-08-17T04:45:49.012Z,18.62
2023-08-17T04:50:52.833Z,18.80
2023-08-17T04:55:55.991Z,19.04
2023-08-17T05:00:59.928Z,19.28
2023-08-17T05:06:02.853Z,19.38
2023-08-17T05:11:05.828Z,19.53
2023-08-17T05:16:08.616Z,19.66
2023-08-17T05:21:11.943Z,19.84
2023-08-17T05:26:16.514Z,20.00
2023-08-17T05:31:20.463Z,20.34
2023-08-17T05:36:25.245Z,20.96
2023-08-17T05:41:27.973Z,21.15
2023-08-17T05:46:30.685Z,21.24
2023-08-17T05:51:33.355Z,21.29
2023-08-17T05:56:36.113Z,21.17
2023-08-17T06:01:39.089Z,21.02
2023-08-17T06:06:41.794Z,21.13
2023-08-17T06:11:44.515Z,21.20
2023-08-17T06:16:47.281Z,21.26
2023-08-17T06:21:50.145Z,21.31
2023-08-17T06:26:52.788Z,21.42
2023-08-17T06:31:56.218Z,21.55
2023-08-17T06:37:04.594Z,21.78
2023-08-17T06:42:07.401Z,22.23
2023-08-17T06:47:10.122Z,22.74
2023-08-17T06:52:13.328Z,23.41
2023-08-17T06:57:16.603Z,24.08
2023-08-17T07:02:22.446Z,24.45
2023-08-17T07:07:25.699Z,24.67
2023-08-17T07:12:29.557Z,24.86
2023-08-17T07:17:32.634Z,24.30
2023-08-17T07:22:36.080Z,24.08
2023-08-17T07:27:38.815Z,24.84
2023-08-17T07:32:41.484Z,25.66
2023-08-17T07:37:50.309Z,26.53
2023-08-17T07:42:58.898Z,27.43
2023-08-17T07:48:01.757Z,28.47
2023-08-17T07:53:04.568Z,28.17
2023-08-17T07:58:07.904Z,27.52
2023-08-17T08:03:10.950Z,26.47
2023-08-17T08:08:13.733Z,25.81
2023-08-17T08:13:17.762Z,25.60
2023-08-17T08:18:20.743Z,25.78
2023-08-17T08:23:23.403Z,26.20
2023-08-17T08:28:26.550Z,28.79
2023-08-17T08:33:29.160Z,29.87
2023-08-17T08:38:31.786Z,31.62
2023-08-17T08:43:34.497Z,31.71
2023-08-17T08:48:40.674Z,33.08
2023-08-17T08:53:46.957Z,33.57
2023-08-17T08:58:54.564Z,31.09
2023-08-17T09:03:59.787Z,30.15
2023-08-17T09:09:03.797Z,31.08
2023-08-17T09:14:08.297Z,33.27
2023-08-17T09:19:11.485Z,34.16
2023-08-17T09:24:14.097Z,34.88
2023-08-17T09:29:21.724Z,34.52
2023-08-17T09:34:24.531Z,35.35
2023-08-17T09:39:27.126Z,36.42
2023-08-17T09:44:29.925Z,37.65
2023-08-17T09:49:36.508Z,37.53
2023-08-17T09:54:39.954Z,34.39
2023-08-17T09:59:42.836Z,32.75
2023-08-17T10:04:49.936Z,31.36
2023-08-17T10:10:04.313Z,30.28
2023-08-17T10:15:11.734Z,28.80
2023-08-17T10:20:15.662Z,28.03
2023-08-17T10:25:19.461Z,27.42
2023-08-17T10:30:22.092Z,26.75
2023-08-17T10:35:25.051Z,26.32
2023-08-17T10:40:36.905Z,26.14
2023-08-17T10:45:40.349Z,26.05
2023-08-17T10:51:04.089Z,25.88
2023-08-17T10:56:10.209Z,25.30
2023-08-17T11:01:13.176Z,24.85
2023-08-17T11:06:18.756Z,24.77
2023-08-17T11:11:23.934Z,25.43
2023-08-17T11:16:26.761Z,26.00
2023-08-17T11:21:29.730Z,26.42
2023-08-17T11:26:35.350Z,26.45
2023-08-17T11:31:41.050Z,26.42
2023-08-17T11:36:44.432Z,26.13
2023-08-17T11:41:47.248Z,26.50
2023-08-17T11:46:49.921Z,28.22
2023-08-17T11:51:55.604Z,29.89
2023-08-17T11:56:58.212Z,30.70
2023-08-17T12:02:02.302Z,32.69
2023-08-17T12:07:05.205Z,33.34
2023-08-17T12:12:08.171Z,33.96
2023-08-17T12:17:20.884Z,34.87
2023-08-17T12:22:26.960Z,35.23
2023-08-17T12:27:29.879Z,34.97
2023-08-17T12:32:32.654Z,34.87
2023-08-17T12:37:35.309Z,35.83
2023-08-17T12:42:37.943Z,36.64
2023-08-17T12:47:40.888Z,36.74
2023-08-17T12:52:47.169Z,35.84
2023-08-17T12:57:50.247Z,36.09
2023-08-17T13:02:52.954Z,35.17
2023-08-17T13:07:55.661Z,34.64
2023-08-17T13:13:00.552Z,34.73
2023-08-17T13:18:03.983Z,35.38
2023-08-17T13:23:06.758Z,34.11
2023-08-17T13:28:09.404Z,33.69
2023-08-17T13:33:12.552Z,32.46
2023-08-17T13:38:15.338Z,31.60
2023-08-17T13:43:17.972Z,31.68
2023-08-17T13:48:20.843Z,31.84
2023-08-17T13:53:23.798Z,30.99
2023-08-17T13:58:26.437Z,30.53
2023-08-17T14:03:29.214Z,30.32
2023-08-17T14:08:31.866Z,29.94
2023-08-17T14:13:35.336Z,31.09
2023-08-17T14:18:38.016Z,32.19
2023-08-17T14:23:41.419Z,33.36
2023-08-17T14:28:45.154Z,34.74
2023-08-17T14:33:49.003Z,34.42
2023-08-17T14:38:51.804Z,33.76
2023-08-17T14:43:54.400Z,33.41
2023-08-17T14:48:57.303Z,33.50
2023-08-17T14:54:00.025Z,33.66
2023-08-17T14:59:03.439Z,33.16
2023-08-17T15:04:06.551Z,33.27
2023-08-17T15:09:09.152Z,32.75
2023-08-17T15:14:16.111Z,32.57
2023-08-17T15:19:30.642Z,32.33
2023-08-17T15:24:41.814Z,31.68
2023-08-17T15:29:44.416Z,31.23
2023-08-17T15:34:47.076Z,31.07
2023-08-17T15:39:49.795Z,31.58
2023-08-17T15:44:53.164Z,30.73
2023-08-17T15:49:55.887Z,30.16
2023-08-17T15:54:58.505Z,29.55
2023-08-17T16:00:01.240Z,29.32
2023-08-17T16:05:24.560Z,29.51
2023-08-17T16:10:27.855Z,29.96
2023-08-17T16:15:30.563Z,29.95
2023-08-17T16:20:34.726Z,29.94
2023-08-17T16:25:37.438Z,29.48
2023-08-17T16:30:41.960Z,29.29
2023-08-17T16:35:44.614Z,29.07
2023-08-17T16:40:47.378Z,28.84
2023-08-17T16:45:50.094Z,28.52
2023-08-17T16:50:53.184Z,28.15
2023-08-17T16:55:55.954Z,27.76
2023-08-17T17:00:58.666Z,27.38
2023-08-17T17:06:01.303Z,27.08
2023-08-17T17:11:04.135Z,26.68
2023-08-17T17:16:06.890Z,26.30
2023-08-17T17:21:12.592Z,25.98
2023-08-17T17:26:15.351Z,25.74
2023-08-17T17:31:18.243Z,25.56
2023-08-17T17:36:20.949Z,25.38
2023-08-17T17:41:23.688Z,25.14
2023-08-17T17:46:26.355Z,24.98
2023-08-17T17:51:29.166Z,24.83
2023-08-17T17:56:43.107Z,24.66
2023-08-17T18:01:45.895Z,24.53
2023-08-17T18:06:48.547Z,24.42
2023-08-17T18:11:51.180Z,24.27
2023-08-17T18:16:53.941Z,24.15
2023-08-17T18:21:56.681Z,24.01
2023-08-17T18:26:59.349Z,23.90
2023-08-17T18:32:01.966Z,23.76
2023-08-17T18:37:04.717Z,23.67
2023-08-17T18:42:07.370Z,23.56
2023-08-17T18:47:10.126Z,23.42
2023-08-17T18:52:12.924Z,23.30
2023-08-17T18:57:15.771Z,23.22
2023-08-17T19:02:18.462Z,23.18
2023-08-17T19:07:21.100Z,23.05
2023-08-17T19:12:23.715Z,23.02
2023-08-17T19:17:26.678Z,22.95
2023-08-17T19:22:29.929Z,22.86
2023-08-17T19:27:32.586Z,22.78
2023-08-17T19:32:35.295Z,22.77
2023-08-17T19:37:38.729Z,22.73
2023-08-17T19:42:41.348Z,22.71
2023-08-17T19:47:44.200Z,22.61
2023-08-17T19:52:47.028Z,22.48
2023-08-17T19:57:49.672Z,22.32
2023-08-17T20:02:55.971Z,22.21
2023-08-17T20:07:58.747Z,22.10
2023-08-17T20:13:01.436Z,22.04
2023-08-17T20:18:04.819Z,21.95
2023-08-17T20:23:07.540Z,21.86
2023-08-17T20:28:10.160Z,21.79
2023-08-17T20:33:13.065Z,21.71
2023-08-17T20:38:15.695Z,21.62
